sensor_id;sensor_type;location;lat;lon;timestamp;P1;durP1;ratioP1;P2;durP2;ratioP2
32535;SDS011;18974;50.838;4.636;2023-07-24T00:00:13;18.60;;;8.05;;
32535;SDS011;18974;50.838;4.636;2023-07-24T00:02:39;15.25;;;7.65;;
32535;SDS011;18974;50.838;4.636;2023-07-24T00:05:05;21.38;;;8.35;;
32535;SDS011;18974;50.838;4.636;2023-07-24T00:07:30;18.02;;;8.20;;
32535;SDS011;18974;50.838;4.636;2023-07-24T00:09:56;15.50;;;8.25;;
32535;SDS011;18974;50.838;4.636;2023-07-24T00:12:22;20.38;;;9.18;;
32535;SDS011;18974;50.838;4.636;2023-07-24T00:14:48;17.73;;;9.07;;
32535;SDS011;18974;50.838;4.636;2023-07-24T00:17:13;18.05;;;8.45;;
32535;SDS011;18974;50.838;4.636;2023-07-24T00:19:39;18.67;;;9.35;;
32535;SDS011;18974;50.838;4.636;2023-07-24T00:22:05;17.52;;;9.13;;
32535;SDS011;18974;50.838;4.636;2023-07-24T00:24:31;21.20;;;8.63;;
32535;SDS011;18974;50.838;4.636;2023-07-24T00:26:57;14.52;;;8.60;;
32535;SDS011;18974;50.838;4.636;2023-07-24T00:29:23;19.65;;;9.43;;
32535;SDS011;18974;50.838;4.636;2023-07-24T00:31:48;18.08;;;8.75;;
32535;SDS011;18974;50.838;4.636;2023-07-24T00:34:14;15.55;;;8.52;;
32535;SDS011;18974;50.838;4.636;2023-07-24T00:36:40;17.58;;;9.20;;
32535;SDS011;18974;50.838;4.636;2023-07-24T00:39:05;23.88;;;8.98;;
32535;SDS011;18974;50.838;4.636;2023-07-24T00:41:32;14.38;;;8.57;;
32535;SDS011;18974;50.838;4.636;2023-07-24T00:43:57;18.73;;;8.80;;
32535;SDS011;18974;50.838;4.636;2023-07-24T00:46:23;16.55;;;8.30;;
32535;SDS011;18974;50.838;4.636;2023-07-24T00:48:51;19.95;;;8.40;;
32535;SDS011;18974;50.838;4.636;2023-07-24T00:51:17;18.20;;;8.63;;
32535;SDS011;18974;50.838;4.636;2023-07-24T00:53:43;14.40;;;8.52;;
32535;SDS011;18974;50.838;4.636;2023-07-24T00:56:09;14.00;;;8.18;;
32535;SDS011;18974;50.838;4.636;2023-07-24T00:58:36;14.70;;;7.97;;
32535;SDS011;18974;50.838;4.636;2023-07-24T01:01:03;19.60;;;8.38;;
32535;SDS011;18974;50.838;4.636;2023-07-24T01:03:33;15.07;;;8.18;;
32535;SDS011;18974;50.838;4.636;2023-07-24T01:06:03;15.40;;;8.07;;
32535;SDS011;18974;50.838;4.636;2023-07-24T01:08:28;16.80;;;8.38;;
32535;SDS011;18974;50.838;4.636;2023-07-24T01:10:55;18.15;;;8.35;;
32535;SDS011;18974;50.838;4.636;2023-07-24T01:13:24;18.15;;;8.95;;
32535;SDS011;18974;50.838;4.636;2023-07-24T01:16:05;18.73;;;8.52;;
32535;SDS011;18974;50.838;4.636;2023-07-24T01:18:39;17.97;;;7.80;;
32535;SDS011;18974;50.838;4.636;2023-07-24T01:21:08;20.45;;;7.82;;
32535;SDS011;18974;50.838;4.636;2023-07-24T01:26:23;15.27;;;7.78;;
32535;SDS011;18974;50.838;4.636;2023-07-24T01:28:50;14.38;;;8.00;;
32535;SDS011;18974;50.838;4.636;2023-07-24T01:31:16;25.70;;;8.50;;
32535;SDS011;18974;50.838;4.636;2023-07-24T01:33:42;14.50;;;7.95;;
32535;SDS011;18974;50.838;4.636;2023-07-24T01:36:09;17.48;;;8.50;;
32535;SDS011;18974;50.838;4.636;2023-07-24T01:38:35;16.35;;;8.02;;
32535;SDS011;18974;50.838;4.636;2023-07-24T01:41:02;19.10;;;8.63;;
32535;SDS011;18974;50.838;4.636;2023-07-24T01:43:29;22.98;;;9.18;;
32535;SDS011;18974;50.838;4.636;2023-07-24T01:45:55;19.05;;;9.07;;
32535;SDS011;18974;50.838;4.636;2023-07-24T01:48:21;14.63;;;8.48;;
32535;SDS011;18974;50.838;4.636;2023-07-24T01:50:47;18.00;;;8.10;;
32535;SDS011;18974;50.838;4.636;2023-07-24T01:53:12;15.80;;;8.50;;
32535;SDS011;18974;50.838;4.636;2023-07-24T01:55:38;21.15;;;8.50;;
32535;SDS011;18974;50.838;4.636;2023-07-24T01:58:04;20.52;;;7.97;;
32535;SDS011;18974;50.838;4.636;2023-07-24T02:00:29;21.42;;;9.13;;
32535;SDS011;18974;50.838;4.636;2023-07-24T02:02:55;14.43;;;7.20;;
32535;SDS011;18974;50.838;4.636;2023-07-24T02:05:21;17.50;;;8.27;;
32535;SDS011;18974;50.838;4.636;2023-07-24T02:07:47;13.85;;;7.78;;
32535;SDS011;18974;50.838;4.636;2023-07-24T02:10:13;13.85;;;7.22;;
32535;SDS011;18974;50.838;4.636;2023-07-24T02:12:38;12.90;;;7.28;;
32535;SDS011;18974;50.838;4.636;2023-07-24T02:15:04;12.02;;;6.10;;
32535;SDS011;18974;50.838;4.636;2023-07-24T02:17:31;16.88;;;7.80;;
32535;SDS011;18974;50.838;4.636;2023-07-24T02:19:57;12.35;;;7.13;;
32535;SDS011;18974;50.838;4.636;2023-07-24T02:22:23;14.35;;;7.95;;
32535;SDS011;18974;50.838;4.636;2023-07-24T02:24:49;14.35;;;6.90;;
32535;SDS011;18974;50.838;4.636;2023-07-24T02:27:25;16.48;;;7.63;;
32535;SDS011;18974;50.838;4.636;2023-07-24T02:29:56;13.93;;;7.28;;
32535;SDS011;18974;50.838;4.636;2023-07-24T02:32:22;19.05;;;7.80;;
32535;SDS011;18974;50.838;4.636;2023-07-24T02:34:51;19.25;;;8.07;;
32535;SDS011;18974;50.838;4.636;2023-07-24T02:37:17;16.83;;;7.68;;
32535;SDS011;18974;50.838;4.636;2023-07-24T02:39:44;17.05;;;8.10;;
32535;SDS011;18974;50.838;4.636;2023-07-24T02:42:10;14.95;;;8.15;;
32535;SDS011;18974;50.838;4.636;2023-07-24T02:44:35;19.05;;;8.20;;
32535;SDS011;18974;50.838;4.636;2023-07-24T02:47:01;19.48;;;8.45;;
32535;SDS011;18974;50.838;4.636;2023-07-24T02:49:27;15.93;;;8.18;;
32535;SDS011;18974;50.838;4.636;2023-07-24T02:51:53;15.63;;;7.53;;
32535;SDS011;18974;50.838;4.636;2023-07-24T02:54:19;14.43;;;7.95;;
32535;SDS011;18974;50.838;4.636;2023-07-24T02:56:44;14.50;;;6.53;;
32535;SDS011;18974;50.838;4.636;2023-07-24T02:59:10;12.32;;;6.75;;
32535;SDS011;18974;50.838;4.636;2023-07-24T03:01:36;13.45;;;7.22;;
32535;SDS011;18974;50.838;4.636;2023-07-24T03:04:01;14.30;;;6.22;;
32535;SDS011;18974;50.838;4.636;2023-07-24T03:06:27;18.02;;;6.75;;
32535;SDS011;18974;50.838;4.636;2023-07-24T03:08:53;11.35;;;6.53;;
32535;SDS011;18974;50.838;4.636;2023-07-24T03:11:19;14.15;;;6.28;;
32535;SDS011;18974;50.838;4.636;2023-07-24T03:13:44;10.00;;;6.38;;
32535;SDS011;18974;50.838;4.636;2023-07-24T03:16:10;9.88;;;5.65;;
32535;SDS011;18974;50.838;4.636;2023-07-24T03:18:36;8.93;;;5.53;;
32535;SDS011;18974;50.838;4.636;2023-07-24T03:21:02;9.63;;;4.72;;
32535;SDS011;18974;50.838;4.636;2023-07-24T03:23:28;10.93;;;4.68;;
32535;SDS011;18974;50.838;4.636;2023-07-24T03:25:54;8.25;;;4.32;;
32535;SDS011;18974;50.838;4.636;2023-07-24T03:28:20;7.15;;;4.40;;
32535;SDS011;18974;50.838;4.636;2023-07-24T03:30:45;10.05;;;4.15;;
32535;SDS011;18974;50.838;4.636;2023-07-24T03:33:11;9.77;;;4.28;;
32535;SDS011;18974;50.838;4.636;2023-07-24T03:35:37;7.45;;;4.00;;
32535;SDS011;18974;50.838;4.636;2023-07-24T03:38:04;7.40;;;4.28;;
32535;SDS011;18974;50.838;4.636;2023-07-24T03:40:30;7.30;;;4.18;;
32535;SDS011;18974;50.838;4.636;2023-07-24T03:42:55;6.45;;;3.70;;
32535;SDS011;18974;50.838;4.636;2023-07-24T03:45:21;9.20;;;5.00;;
32535;SDS011;18974;50.838;4.636;2023-07-24T03:47:47;4.70;;;3.25;;
32535;SDS011;18974;50.838;4.636;2023-07-24T03:50:12;6.47;;;2.92;;
32535;SDS011;18974;50.838;4.636;2023-07-24T03:52:38;5.75;;;2.40;;
32535;SDS011;18974;50.838;4.636;2023-07-24T03:55:04;4.22;;;2.58;;
32535;SDS011;18974;50.838;4.636;2023-07-24T03:57:30;5.30;;;2.20;;
32535;SDS011;18974;50.838;4.636;2023-07-24T03:59:55;3.08;;;2.28;;
32535;SDS011;18974;50.838;4.636;2023-07-24T04:02:23;3.22;;;2.20;;
32535;SDS011;18974;50.838;4.636;2023-07-24T04:04:48;2.20;;;2.00;;
32535;SDS011;18974;50.838;4.636;2023-07-24T04:07:14;4.45;;;2.10;;
32535;SDS011;18974;50.838;4.636;2023-07-24T04:09:40;4.63;;;2.22;;
32535;SDS011;18974;50.838;4.636;2023-07-24T04:12:05;2.78;;;2.20;;
32535;SDS011;18974;50.838;4.636;2023-07-24T04:14:31;2.95;;;2.00;;
32535;SDS011;18974;50.838;4.636;2023-07-24T04:16:57;4.00;;;2.53;;
32535;SDS011;18974;50.838;4.636;2023-07-24T04:19:22;4.18;;;2.60;;
32535;SDS011;18974;50.838;4.636;2023-07-24T04:21:48;2.53;;;2.13;;
32535;SDS011;18974;50.838;4.636;2023-07-24T04:24:14;4.00;;;2.50;;
32535;SDS011;18974;50.838;4.636;2023-07-24T04:26:39;5.90;;;2.90;;
32535;SDS011;18974;50.838;4.636;2023-07-24T04:29:05;5.13;;;2.50;;
32535;SDS011;18974;50.838;4.636;2023-07-24T04:31:31;4.38;;;2.70;;
32535;SDS011;18974;50.838;4.636;2023-07-24T04:33:57;6.20;;;3.00;;
32535;SDS011;18974;50.838;4.636;2023-07-24T04:36:23;3.35;;;2.30;;
32535;SDS011;18974;50.838;4.636;2023-07-24T04:38:49;4.63;;;2.78;;
32535;SDS011;18974;50.838;4.636;2023-07-24T04:41:14;2.97;;;2.35;;
32535;SDS011;18974;50.838;4.636;2023-07-24T04:43:41;2.80;;;2.35;;
32535;SDS011;18974;50.838;4.636;2023-07-24T04:46:06;2.50;;;2.30;;
32535;SDS011;18974;50.838;4.636;2023-07-24T04:48:32;2.90;;;2.40;;
32535;SDS011;18974;50.838;4.636;2023-07-24T04:50:57;3.72;;;2.85;;
32535;SDS011;18974;50.838;4.636;2023-07-24T04:53:23;3.10;;;2.30;;
32535;SDS011;18974;50.838;4.636;2023-07-24T04:55:49;4.05;;;2.50;;
32535;SDS011;18974;50.838;4.636;2023-07-24T04:58:14;3.50;;;2.50;;
32535;SDS011;18974;50.838;4.636;2023-07-24T05:00:40;3.58;;;2.72;;
32535;SDS011;18974;50.838;4.636;2023-07-24T05:03:06;3.15;;;2.72;;
32535;SDS011;18974;50.838;4.636;2023-07-24T05:05:35;5.45;;;2.60;;
32535;SDS011;18974;50.838;4.636;2023-07-24T05:08:04;9.15;;;2.70;;
32535;SDS011;18974;50.838;4.636;2023-07-24T05:10:34;3.25;;;2.85;;
32535;SDS011;18974;50.838;4.636;2023-07-24T05:13:00;4.32;;;3.28;;
32535;SDS011;18974;50.838;4.636;2023-07-24T05:15:26;4.30;;;3.47;;
32535;SDS011;18974;50.838;4.636;2023-07-24T05:17:51;4.85;;;3.20;;
32535;SDS011;18974;50.838;4.636;2023-07-24T05:20:17;3.78;;;3.15;;
32535;SDS011;18974;50.838;4.636;2023-07-24T05:22:43;4.93;;;3.08;;
32535;SDS011;18974;50.838;4.636;2023-07-24T05:25:08;4.32;;;2.92;;
32535;SDS011;18974;50.838;4.636;2023-07-24T05:27:34;4.78;;;2.97;;
32535;SDS011;18974;50.838;4.636;2023-07-24T05:30:01;5.47;;;3.25;;
32535;SDS011;18974;50.838;4.636;2023-07-24T05:32:27;4.13;;;3.03;;
32535;SDS011;18974;50.838;4.636;2023-07-24T05:34:52;6.97;;;2.80;;
32535;SDS011;18974;50.838;4.636;2023-07-24T05:37:18;5.55;;;3.33;;
32535;SDS011;18974;50.838;4.636;2023-07-24T05:39:44;4.32;;;2.55;;
32535;SDS011;18974;50.838;4.636;2023-07-24T05:42:09;3.15;;;2.50;;
32535;SDS011;18974;50.838;4.636;2023-07-24T05:44:35;5.13;;;2.92;;
32535;SDS011;18974;50.838;4.636;2023-07-24T05:47:02;4.30;;;2.90;;
32535;SDS011;18974;50.838;4.636;2023-07-24T05:49:28;3.45;;;2.75;;
32535;SDS011;18974;50.838;4.636;2023-07-24T05:51:54;3.13;;;2.70;;
32535;SDS011;18974;50.838;4.636;2023-07-24T05:54:19;3.65;;;2.70;;
32535;SDS011;18974;50.838;4.636;2023-07-24T05:56:45;4.22;;;2.90;;
32535;SDS011;18974;50.838;4.636;2023-07-24T05:59:11;3.05;;;2.67;;
32535;SDS011;18974;50.838;4.636;2023-07-24T06:01:36;7.28;;;2.42;;
32535;SDS011;18974;50.838;4.636;2023-07-24T06:04:02;3.20;;;2.65;;
32535;SDS011;18974;50.838;4.636;2023-07-24T06:06:27;4.18;;;2.20;;
32535;SDS011;18974;50.838;4.636;2023-07-24T06:08:53;6.05;;;2.97;;
32535;SDS011;18974;50.838;4.636;2023-07-24T06:11:19;2.97;;;2.58;;
32535;SDS011;18974;50.838;4.636;2023-07-24T06:13:44;5.28;;;2.90;;
32535;SDS011;18974;50.838;4.636;2023-07-24T06:16:10;2.50;;;2.30;;
32535;SDS011;18974;50.838;4.636;2023-07-24T06:18:37;6.50;;;2.85;;
32535;SDS011;18974;50.838;4.636;2023-07-24T06:21:03;3.08;;;2.30;;
32535;SDS011;18974;50.838;4.636;2023-07-24T06:23:29;4.30;;;2.83;;
32535;SDS011;18974;50.838;4.636;2023-07-24T06:25:54;4.95;;;2.80;;
32535;SDS011;18974;50.838;4.636;2023-07-24T06:28:20;5.30;;;2.63;;
32535;SDS011;18974;50.838;4.636;2023-07-24T06:30:46;5.35;;;2.70;;
32535;SDS011;18974;50.838;4.636;2023-07-24T06:33:11;4.05;;;2.63;;
32535;SDS011;18974;50.838;4.636;2023-07-24T06:35:37;3.15;;;2.80;;
32535;SDS011;18974;50.838;4.636;2023-07-24T06:38:03;5.47;;;3.00;;
32535;SDS011;18974;50.838;4.636;2023-07-24T06:40:28;4.13;;;2.72;;
32535;SDS011;18974;50.838;4.636;2023-07-24T06:42:54;4.57;;;2.63;;
32535;SDS011;18974;50.838;4.636;2023-07-24T06:45:20;2.70;;;2.17;;
32535;SDS011;18974;50.838;4.636;2023-07-24T06:47:45;2.33;;;2.13;;
32535;SDS011;18974;50.838;4.636;2023-07-24T06:50:11;4.93;;;2.40;;
32535;SDS011;18974;50.838;4.636;2023-07-24T06:52:37;3.15;;;2.40;;
32535;SDS011;18974;50.838;4.636;2023-07-24T06:55:02;7.78;;;2.70;;
32535;SDS011;18974;50.838;4.636;2023-07-24T06:57:28;4.15;;;2.63;;
32535;SDS011;18974;50.838;4.636;2023-07-24T06:59:54;5.35;;;2.83;;
32535;SDS011;18974;50.838;4.636;2023-07-24T07:02:20;3.35;;;2.05;;
32535;SDS011;18974;50.838;4.636;2023-07-24T07:04:45;3.55;;;2.40;;
32535;SDS011;18974;50.838;4.636;2023-07-24T07:07:11;4.93;;;2.70;;
32535;SDS011;18974;50.838;4.636;2023-07-24T07:09:36;2.50;;;2.25;;
32535;SDS011;18974;50.838;4.636;2023-07-24T07:12:02;3.53;;;2.63;;
32535;SDS011;18974;50.838;4.636;2023-07-24T07:14:28;3.35;;;2.53;;
32535;SDS011;18974;50.838;4.636;2023-07-24T07:16:53;2.88;;;2.25;;
32535;SDS011;18974;50.838;4.636;2023-07-24T07:19:19;4.75;;;2.45;;
32535;SDS011;18974;50.838;4.636;2023-07-24T07:21:45;3.35;;;2.40;;
32535;SDS011;18974;50.838;4.636;2023-07-24T07:24:10;4.55;;;2.75;;
32535;SDS011;18974;50.838;4.636;2023-07-24T07:26:37;3.28;;;2.20;;
32535;SDS011;18974;50.838;4.636;2023-07-24T07:29:03;4.45;;;2.00;;
32535;SDS011;18974;50.838;4.636;2023-07-24T07:31:29;3.28;;;2.13;;
32535;SDS011;18974;50.838;4.636;2023-07-24T07:33:54;3.00;;;2.15;;
32535;SDS011;18974;50.838;4.636;2023-07-24T07:36:20;4.72;;;2.25;;
32535;SDS011;18974;50.838;4.636;2023-07-24T07:38:47;2.83;;;2.50;;
32535;SDS011;18974;50.838;4.636;2023-07-24T07:41:13;2.55;;;2.20;;
32535;SDS011;18974;50.838;4.636;2023-07-24T07:43:39;4.22;;;2.45;;
32535;SDS011;18974;50.838;4.636;2023-07-24T07:46:04;3.30;;;2.03;;
32535;SDS011;18974;50.838;4.636;2023-07-24T07:48:30;6.65;;;2.67;;
32535;SDS011;18974;50.838;4.636;2023-07-24T07:50:57;4.13;;;2.60;;
32535;SDS011;18974;50.838;4.636;2023-07-24T07:53:22;6.20;;;2.50;;
32535;SDS011;18974;50.838;4.636;2023-07-24T07:55:54;4.80;;;2.40;;
32535;SDS011;18974;50.838;4.636;2023-07-24T07:58:22;4.43;;;2.88;;
32535;SDS011;18974;50.838;4.636;2023-07-24T08:00:48;2.97;;;2.38;;
32535;SDS011;18974;50.838;4.636;2023-07-24T08:03:13;4.38;;;2.92;;
32535;SDS011;18974;50.838;4.636;2023-07-24T08:05:39;5.30;;;3.17;;
32535;SDS011;18974;50.838;4.636;2023-07-24T08:08:04;5.75;;;2.40;;
32535;SDS011;18974;50.838;4.636;2023-07-24T08:10:30;4.40;;;2.42;;
32535;SDS011;18974;50.838;4.636;2023-07-24T08:12:56;4.80;;;2.63;;
32535;SDS011;18974;50.838;4.636;2023-07-24T08:15:21;5.53;;;2.60;;
32535;SDS011;18974;50.838;4.636;2023-07-24T08:17:47;4.45;;;2.42;;
32535;SDS011;18974;50.838;4.636;2023-07-24T08:20:12;3.60;;;2.38;;
32535;SDS011;18974;50.838;4.636;2023-07-24T08:22:38;3.00;;;2.55;;
32535;SDS011;18974;50.838;4.636;2023-07-24T08:25:04;4.78;;;2.50;;
32535;SDS011;18974;50.838;4.636;2023-07-24T08:27:30;3.30;;;2.45;;
32535;SDS011;18974;50.838;4.636;2023-07-24T08:29:55;4.28;;;2.47;;
32535;SDS011;18974;50.838;4.636;2023-07-24T08:32:21;5.72;;;2.70;;
32535;SDS011;18974;50.838;4.636;2023-07-24T08:34:46;3.58;;;2.40;;
32535;SDS011;18974;50.838;4.636;2023-07-24T08:37:12;4.85;;;2.30;;
32535;SDS011;18974;50.838;4.636;2023-07-24T08:39:38;3.33;;;2.50;;
32535;SDS011;18974;50.838;4.636;2023-07-24T08:42:10;4.22;;;2.10;;
32535;SDS011;18974;50.838;4.636;2023-07-24T08:44:37;2.40;;;1.70;;
32535;SDS011;18974;50.838;4.636;2023-07-24T08:47:03;4.00;;;2.30;;
32535;SDS011;18974;50.838;4.636;2023-07-24T08:49:30;2.63;;;2.00;;
32535;SDS011;18974;50.838;4.636;2023-07-24T08:51:58;4.95;;;2.30;;
32535;SDS011;18974;50.838;4.636;2023-07-24T08:54:26;3.80;;;1.92;;
32535;SDS011;18974;50.838;4.636;2023-07-24T08:56:52;3.17;;;2.55;;
32535;SDS011;18974;50.838;4.636;2023-07-24T08:59:18;3.08;;;2.13;;
32535;SDS011;18974;50.838;4.636;2023-07-24T09:01:44;2.80;;;2.13;;
32535;SDS011;18974;50.838;4.636;2023-07-24T09:04:10;2.72;;;1.90;;
32535;SDS011;18974;50.838;4.636;2023-07-24T09:06:36;3.42;;;2.08;;
32535;SDS011;18974;50.838;4.636;2023-07-24T09:09:11;6.97;;;2.90;;
32535;SDS011;18974;50.838;4.636;2023-07-24T09:11:46;6.60;;;2.45;;
32535;SDS011;18974;50.838;4.636;2023-07-24T09:14:23;6.50;;;2.65;;
32535;SDS011;18974;50.838;4.636;2023-07-24T09:16:50;6.53;;;3.40;;
32535;SDS011;18974;50.838;4.636;2023-07-24T09:19:27;5.97;;;3.03;;
32535;SDS011;18974;50.838;4.636;2023-07-24T09:21:52;5.68;;;3.50;;
32535;SDS011;18974;50.838;4.636;2023-07-24T09:24:18;8.10;;;3.67;;
32535;SDS011;18974;50.838;4.636;2023-07-24T09:26:47;7.32;;;3.60;;
32535;SDS011;18974;50.838;4.636;2023-07-24T09:29:14;7.97;;;3.20;;
32535;SDS011;18974;50.838;4.636;2023-07-24T09:31:40;6.45;;;3.20;;
32535;SDS011;18974;50.838;4.636;2023-07-24T09:34:13;5.45;;;3.65;;
32535;SDS011;18974;50.838;4.636;2023-07-24T09:36:40;8.98;;;3.67;;
32535;SDS011;18974;50.838;4.636;2023-07-24T09:39:07;9.15;;;4.22;;
32535;SDS011;18974;50.838;4.636;2023-07-24T09:41:35;10.65;;;4.32;;
32535;SDS011;18974;50.838;4.636;2023-07-24T09:44:01;6.78;;;3.80;;
32535;SDS011;18974;50.838;4.636;2023-07-24T09:46:27;9.70;;;4.20;;
32535;SDS011;18974;50.838;4.636;2023-07-24T09:48:56;7.63;;;4.45;;
32535;SDS011;18974;50.838;4.636;2023-07-24T09:51:23;5.65;;;3.95;;
32535;SDS011;18974;50.838;4.636;2023-07-24T09:53:55;6.57;;;4.45;;
32535;SDS011;18974;50.838;4.636;2023-07-24T09:56:27;5.00;;;3.67;;
32535;SDS011;18974;50.838;4.636;2023-07-24T09:58:53;6.93;;;4.25;;
32535;SDS011;18974;50.838;4.636;2023-07-24T10:01:21;5.15;;;3.58;;
32535;SDS011;18974;50.838;4.636;2023-07-24T10:03:48;6.70;;;3.70;;
32535;SDS011;18974;50.838;4.636;2023-07-24T10:06:17;5.03;;;3.63;;
32535;SDS011;18974;50.838;4.636;2023-07-24T10:08:44;7.00;;;4.53;;
32535;SDS011;18974;50.838;4.636;2023-07-24T10:11:11;7.70;;;4.65;;
32535;SDS011;18974;50.838;4.636;2023-07-24T10:13:38;9.80;;;4.65;;
32535;SDS011;18974;50.838;4.636;2023-07-24T10:16:04;6.07;;;4.32;;
32535;SDS011;18974;50.838;4.636;2023-07-24T10:18:32;5.93;;;3.60;;
32535;SDS011;18974;50.838;4.636;2023-07-24T10:21:06;6.97;;;3.50;;
32535;SDS011;18974;50.838;4.636;2023-07-24T10:23:33;5.47;;;3.63;;
32535;SDS011;18974;50.838;4.636;2023-07-24T10:26:06;4.97;;;3.45;;
32535;SDS011;18974;50.838;4.636;2023-07-24T10:28:33;5.15;;;3.50;;
32535;SDS011;18974;50.838;4.636;2023-07-24T10:31:03;7.00;;;3.45;;
32535;SDS011;18974;50.838;4.636;2023-07-24T10:33:34;5.13;;;3.20;;
32535;SDS011;18974;50.838;4.636;2023-07-24T10:36:06;3.72;;;2.78;;
32535;SDS011;18974;50.838;4.636;2023-07-24T10:38:39;4.93;;;3.10;;
32535;SDS011;18974;50.838;4.636;2023-07-24T10:41:07;4.10;;;3.17;;
32535;SDS011;18974;50.838;4.636;2023-07-24T10:43:44;3.28;;;2.28;;
32535;SDS011;18974;50.838;4.636;2023-07-24T10:46:11;4.22;;;2.33;;
32535;SDS011;18974;50.838;4.636;2023-07-24T10:48:37;3.22;;;2.28;;
32535;SDS011;18974;50.838;4.636;2023-07-24T10:51:07;4.28;;;2.47;;
32535;SDS011;18974;50.838;4.636;2023-07-24T10:53:34;3.08;;;2.42;;
32535;SDS011;18974;50.838;4.636;2023-07-24T10:56:01;3.67;;;2.90;;
32535;SDS011;18974;50.838;4.636;2023-07-24T10:58:27;4.45;;;2.55;;
32535;SDS011;18974;50.838;4.636;2023-07-24T11:00:53;13.13;;;3.03;;
32535;SDS011;18974;50.838;4.636;2023-07-24T11:03:20;4.95;;;2.78;;
32535;SDS011;18974;50.838;4.636;2023-07-24T11:05:46;2.80;;;2.50;;
32535;SDS011;18974;50.838;4.636;2023-07-24T11:08:13;4.32;;;2.85;;
32535;SDS011;18974;50.838;4.636;2023-07-24T11:10:53;3.63;;;2.58;;
32535;SDS011;18974;50.838;4.636;2023-07-24T11:13:23;5.43;;;2.42;;
32535;SDS011;18974;50.838;4.636;2023-07-24T11:15:53;4.70;;;2.85;;
32535;SDS011;18974;50.838;4.636;2023-07-24T11:18:19;5.68;;;2.80;;
32535;SDS011;18974;50.838;4.636;2023-07-24T11:20:54;3.70;;;2.92;;
32535;SDS011;18974;50.838;4.636;2023-07-24T11:23:20;3.75;;;2.45;;
32535;SDS011;18974;50.838;4.636;2023-07-24T11:25:47;3.75;;;2.50;;
32535;SDS011;18974;50.838;4.636;2023-07-24T11:28:15;2.90;;;2.30;;
32535;SDS011;18974;50.838;4.636;2023-07-24T11:30:41;3.97;;;2.90;;
32535;SDS011;18974;50.838;4.636;2023-07-24T11:33:08;6.38;;;2.88;;
32535;SDS011;18974;50.838;4.636;2023-07-24T11:35:35;4.18;;;3.03;;
32535;SDS011;18974;50.838;4.636;2023-07-24T11:38:03;6.03;;;3.15;;
32535;SDS011;18974;50.838;4.636;2023-07-24T11:43:02;4.50;;;3.30;;
32535;SDS011;18974;50.838;4.636;2023-07-24T11:45:29;4.40;;;3.13;;
32535;SDS011;18974;50.838;4.636;2023-07-24T11:47:56;4.80;;;3.80;;
32535;SDS011;18974;50.838;4.636;2023-07-24T11:50:22;5.13;;;3.55;;
32535;SDS011;18974;50.838;4.636;2023-07-24T11:52:49;5.85;;;3.47;;
32535;SDS011;18974;50.838;4.636;2023-07-24T11:55:20;5.15;;;3.50;;
32535;SDS011;18974;50.838;4.636;2023-07-24T11:57:56;7.43;;;4.07;;
32535;SDS011;18974;50.838;4.636;2023-07-24T12:00:22;5.60;;;3.67;;
32535;SDS011;18974;50.838;4.636;2023-07-24T12:02:49;6.10;;;4.00;;
32535;SDS011;18974;50.838;4.636;2023-07-24T12:05:15;6.70;;;3.83;;
32535;SDS011;18974;50.838;4.636;2023-07-24T12:07:42;5.22;;;3.30;;
32535;SDS011;18974;50.838;4.636;2023-07-24T12:10:12;3.60;;;3.28;;
32535;SDS011;18974;50.838;4.636;2023-07-24T12:12:47;5.95;;;3.67;;
32535;SDS011;18974;50.838;4.636;2023-07-24T12:15:14;6.35;;;3.33;;
32535;SDS011;18974;50.838;4.636;2023-07-24T12:17:40;4.35;;;3.45;;
32535;SDS011;18974;50.838;4.636;2023-07-24T12:20:07;4.68;;;3.90;;
32535;SDS011;18974;50.838;4.636;2023-07-24T12:22:35;4.40;;;3.95;;
32535;SDS011;18974;50.838;4.636;2023-07-24T12:25:01;6.05;;;3.83;;
32535;SDS011;18974;50.838;4.636;2023-07-24T12:27:28;6.55;;;3.65;;
32535;SDS011;18974;50.838;4.636;2023-07-24T12:29:54;4.00;;;3.58;;
32535;SDS011;18974;50.838;4.636;2023-07-24T12:32:20;6.57;;;4.07;;
32535;SDS011;18974;50.838;4.636;2023-07-24T12:34:47;5.72;;;4.00;;
32535;SDS011;18974;50.838;4.636;2023-07-24T12:37:13;5.82;;;3.72;;
32535;SDS011;18974;50.838;4.636;2023-07-24T12:39:39;5.05;;;4.03;;
32535;SDS011;18974;50.838;4.636;2023-07-24T12:42:05;5.65;;;4.10;;
32535;SDS011;18974;50.838;4.636;2023-07-24T12:44:31;6.43;;;4.40;;
32535;SDS011;18974;50.838;4.636;2023-07-24T12:46:57;9.05;;;4.40;;
32535;SDS011;18974;50.838;4.636;2023-07-24T12:49:23;4.90;;;3.92;;
32535;SDS011;18974;50.838;4.636;2023-07-24T12:51:48;6.05;;;4.15;;
32535;SDS011;18974;50.838;4.636;2023-07-24T12:54:14;4.78;;;3.90;;
32535;SDS011;18974;50.838;4.636;2023-07-24T12:56:40;5.63;;;4.07;;
32535;SDS011;18974;50.838;4.636;2023-07-24T12:59:06;4.72;;;4.05;;
32535;SDS011;18974;50.838;4.636;2023-07-24T13:01:31;14.10;;;4.05;;
32535;SDS011;18974;50.838;4.636;2023-07-24T13:03:57;6.85;;;4.20;;
32535;SDS011;18974;50.838;4.636;2023-07-24T13:06:23;6.70;;;4.07;;
32535;SDS011;18974;50.838;4.636;2023-07-24T13:08:49;4.80;;;3.55;;
32535;SDS011;18974;50.838;4.636;2023-07-24T13:11:15;5.68;;;3.80;;
32535;SDS011;18974;50.838;4.636;2023-07-24T13:13:40;4.70;;;3.33;;
32535;SDS011;18974;50.838;4.636;2023-07-24T13:16:06;7.05;;;3.35;;
32535;SDS011;18974;50.838;4.636;2023-07-24T13:18:32;3.95;;;3.10;;
32535;SDS011;18974;50.838;4.636;2023-07-24T13:20:58;7.18;;;2.80;;
32535;SDS011;18974;50.838;4.636;2023-07-24T13:23:23;5.60;;;3.47;;
32535;SDS011;18974;50.838;4.636;2023-07-24T13:25:49;5.78;;;3.78;;
32535;SDS011;18974;50.838;4.636;2023-07-24T13:28:16;5.55;;;3.13;;
32535;SDS011;18974;50.838;4.636;2023-07-24T13:30:42;5.22;;;3.30;;
32535;SDS011;18974;50.838;4.636;2023-07-24T13:33:08;4.63;;;3.30;;
32535;SDS011;18974;50.838;4.636;2023-07-24T13:35:34;4.85;;;3.17;;
32535;SDS011;18974;50.838;4.636;2023-07-24T13:37:59;9.13;;;3.65;;
32535;SDS011;18974;50.838;4.636;2023-07-24T13:40:25;5.93;;;4.10;;
32535;SDS011;18974;50.838;4.636;2023-07-24T13:42:51;6.65;;;3.47;;
32535;SDS011;18974;50.838;4.636;2023-07-24T13:45:17;6.68;;;3.50;;
32535;SDS011;18974;50.838;4.636;2023-07-24T13:47:42;6.53;;;3.47;;
32535;SDS011;18974;50.838;4.636;2023-07-24T13:50:08;7.72;;;3.10;;
32535;SDS011;18974;50.838;4.636;2023-07-24T13:52:34;5.70;;;3.47;;
32535;SDS011;18974;50.838;4.636;2023-07-24T13:54:59;5.22;;;3.17;;
32535;SDS011;18974;50.838;4.636;2023-07-24T13:57:25;6.75;;;3.63;;
32535;SDS011;18974;50.838;4.636;2023-07-24T13:59:51;6.43;;;3.85;;
32535;SDS011;18974;50.838;4.636;2023-07-24T14:02:17;6.50;;;3.83;;
32535;SDS011;18974;50.838;4.636;2023-07-24T14:04:43;5.38;;;3.38;;
32535;SDS011;18974;50.838;4.636;2023-07-24T14:07:09;5.82;;;3.58;;
32535;SDS011;18974;50.838;4.636;2023-07-24T14:09:35;6.50;;;3.58;;
32535;SDS011;18974;50.838;4.636;2023-07-24T14:12:01;4.45;;;3.40;;
32535;SDS011;18974;50.838;4.636;2023-07-24T14:14:27;5.80;;;2.97;;
32535;SDS011;18974;50.838;4.636;2023-07-24T14:16:53;4.30;;;3.00;;
32535;SDS011;18974;50.838;4.636;2023-07-24T14:19:18;4.75;;;3.30;;
32535;SDS011;18974;50.838;4.636;2023-07-24T14:21:44;4.03;;;2.60;;
32535;SDS011;18974;50.838;4.636;2023-07-24T14:24:10;6.90;;;3.45;;
32535;SDS011;18974;50.838;4.636;2023-07-24T14:26:36;5.18;;;3.88;;
32535;SDS011;18974;50.838;4.636;2023-07-24T14:29:02;4.25;;;2.53;;
32535;SDS011;18974;50.838;4.636;2023-07-24T14:31:28;4.13;;;2.60;;
32535;SDS011;18974;50.838;4.636;2023-07-24T14:33:54;3.75;;;2.75;;
32535;SDS011;18974;50.838;4.636;2023-07-24T14:36:20;3.13;;;2.40;;
32535;SDS011;18974;50.838;4.636;2023-07-24T14:38:46;3.70;;;2.70;;
32535;SDS011;18974;50.838;4.636;2023-07-24T14:41:12;7.95;;;3.15;;
32535;SDS011;18974;50.838;4.636;2023-07-24T14:43:41;6.38;;;3.05;;
32535;SDS011;18974;50.838;4.636;2023-07-24T14:46:07;3.58;;;2.38;;